Time,TemperatureF,DewpointF,PressureIn,WindDirection,WindDirectionDegrees,WindSpeedMPH,WindSpeedGustMPH,Humidity,HourlyPrecipIn,Conditions,Clouds,dailyrainin,SoftwareType,DateUTC
2013-06-22 00:01:00,63.9,63.0,30.03,ENE,67,0.0,-999.0,97,-99.99,,,0.00,Acu-Link.com,2013-06-22 04:01:00,
2013-06-22 00:16:00,63.1,62.5,30.03,NNW,337,0.0,-999.0,98,-99.99,,,0.00,Acu-Link.com,2013-06-22 04:16:00,
2013-06-22 00:31:00,62.6,62.0,30.04,NE,45,0.0,-999.0,98,-99.99,,,0.00,Acu-Link.com,2013-06-22 04:31:00,
2013-06-22 00:47:00,62.6,62.3,30.03,NNE,22,0.0,-999.0,99,-99.99,,,0.00,Acu-Link.com,2013-06-22 04:47:00,
2013-06-22 01:02:00,62.1,61.8,30.03,NE,45,0.0,-999.0,99,-99.99,,,0.00,Acu-Link.com,2013-06-22 05:02:00,
2013-06-22 01:17:00,61.5,61.2,30.02,NW,315,0.0,-999.0,99,-99.99,,,0.00,Acu-Link.com,2013-06-22 05:17:00,
2013-06-22 01:32:00,61.3,61.0,30.02,North,0,0.0,-999.0,99,-99.99,,,0.00,Acu-Link.com,2013-06-22 05:32:00,
2013-06-22 01:47:00,61.0,60.7,30.01,NNE,22,0.0,-999.0,99,-99.99,,,0.00,Acu-Link.com,2013-06-22 05:47:00,
2013-06-22 02:02:00,60.3,60.0,30.02,NNE,22,0.0,-999.0,99,-99.99,,,0.00,Acu-Link.com,2013-06-22 06:02:00,
2013-06-22 02:17:00,59.7,59.4,30.01,NNE,22,0.0,-999.0,99,-99.99,,,0.00,Acu-Link.com,2013-06-22 06:17:00,
2013-06-22 02:32:00,59.5,59.2,30.02,NW,315,0.0,-999.0,99,-99.99,,,0.00,Acu-Link.com,2013-06-22 06:32:00,
2013-06-22 02:47:00,59.9,59.6,30.01,NW,315,0.0,-999.0,99,-99.99,,,0.00,Acu-Link.com,2013-06-22 06:47:00,
2013-06-22 03:02:00,59.7,59.4,30.01,NNE,22,0.0,-999.0,99,-99.99,,,0.00,Acu-Link.com,2013-06-22 07:02:00,
2013-06-22 03:18:00,59.4,59.1,30.00,NW,315,0.0,-999.0,99,-99.99,,,0.00,Acu-Link.com,2013-06-22 07:18:00,
2013-06-22 03:33:00,59.4,59.1,30.01,NW,315,0.0,-999.0,99,-99.99,,,0.00,Acu-Link.com,2013-06-22 07:33:00,
2013-06-22 03:48:00,59.7,59.4,30.01,WNW,292,0.0,-999.0,99,-99.99,,,0.00,Acu-Link.com,2013-06-22 07:48:00,
2013-06-22 04:03:00,59.5,59.2,30.01,ESE,112,0.0,-999.0,99,-99.99,,,0.00,Acu-Link.com,2013-06-22 08:03:00,
2013-06-22 04:18:00,59.4,59.1,30.01,ESE,112,0.0,-999.0,99,-99.99,,,0.00,Acu-Link.com,2013-06-22 08:18:00,
2013-06-22 04:34:00,59.2,58.9,30.01,ESE,112,0.0,-999.0,99,-99.99,,,0.00,Acu-Link.com,2013-06-22 08:34:00,
2013-06-22 04:49:00,59.0,58.7,30.02,NNW,337,0.0,-999.0,99,-99.99,,,0.00,Acu-Link.com,2013-06-22 08:49:00,
2013-06-22 05:04:00,59.0,58.7,30.01,North,0,0.0,-999.0,99,-99.99,,,0.00,Acu-Link.com,2013-06-22 09:04:00,
2013-06-22 05:19:00,58.3,58.0,30.02,NNW,337,0.0,-999.0,99,-99.99,,,0.00,Acu-Link.com,2013-06-22 09:19:00,
2013-06-22 05:34:00,58.1,57.8,30.02,NW,315,0.0,-999.0,99,-99.99,,,0.00,Acu-Link.com,2013-06-22 09:34:00,
2013-06-22 05:50:00,57.6,57.3,30.02,WNW,292,0.0,-999.0,99,-99.99,,,0.00,Acu-Link.com,2013-06-22 09:50:00,
2013-06-22 06:05:00,57.2,56.9,30.03,NNE,22,0.0,-999.0,99,-99.99,,,0.00,Acu-Link.com,2013-06-22 10:05:00,
2013-06-22 06:20:00,57.2,56.9,30.04,East,90,0.0,-999.0,99,-99.99,,,0.00,Acu-Link.com,2013-06-22 10:20:00,
2013-06-22 06:35:00,57.2,56.9,30.04,NW,315,0.0,-999.0,99,-99.99,,,0.00,Acu-Link.com,2013-06-22 10:35:00,
2013-06-22 06:50:00,57.4,57.1,30.03,WNW,292,0.0,-999.0,99,-99.99,,,0.00,Acu-Link.com,2013-06-22 10:50:00,
2013-06-22 07:05:00,57.4,57.1,30.03,SSE,157,0.0,-999.0,99,-99.99,,,0.00,Acu-Link.com,2013-06-22 11:05:00,
2013-06-22 07:21:00,57.9,57.6,30.04,ESE,112,0.0,-999.0,99,-99.99,,,0.00,Acu-Link.com,2013-06-22 11:21:00,
2013-06-22 07:36:00,58.5,58.2,30.03,WNW,292,0.0,-999.0,99,-99.99,,,0.00,Acu-Link.com,2013-06-22 11:36:00,
2013-06-22 07:51:00,59.7,59.4,30.04,WNW,292,1.7,-999.0,99,-99.99,,,0.00,Acu-Link.com,2013-06-22 11:51:00,
2013-06-22 08:06:00,60.3,60.0,30.04,WSW,247,1.1,-999.0,99,-99.99,,,0.00,Acu-Link.com,2013-06-22 12:06:00,
2013-06-22 08:21:00,61.0,60.7,30.04,SW,225,1.7,-999.0,99,-99.99,,,0.00,Acu-Link.com,2013-06-22 12:21:00,
2013-06-22 08:36:00,61.2,60.9,30.05,West,270,2.2,-999.0,99,-99.99,,,0.00,Acu-Link.com,2013-06-22 12:36:00,
2013-06-22 08:51:00,63.3,62.7,30.04,ESE,112,0.0,-999.0,98,-99.99,,,0.00,Acu-Link.com,2013-06-22 12:51:00,
2013-06-22 09:06:00,65.5,63.4,30.05,SW,225,1.7,-999.0,93,-99.99,,,0.00,Acu-Link.com,2013-06-22 13:06:00,
2013-06-22 09:21:00,69.6,62.8,30.06,WNW,292,4.7,-999.0,79,-99.99,,,0.00,Acu-Link.com,2013-06-22 13:21:00,
2013-06-22 09:37:00,72.9,62.1,30.06,NW,315,2.2,-999.0,69,-99.99,,,0.00,Acu-Link.com,2013-06-22 13:37:00,
2013-06-22 09:52:00,74.8,61.3,30.07,SE,135,2.7,-999.0,63,-99.99,,,0.00,Acu-Link.com,2013-06-22 13:52:00,
2013-06-22 10:07:00,78.8,60.7,30.07,SSE,157,3.7,-999.0,54,-99.99,,,0.00,Acu-Link.com,2013-06-22 14:07:00,
2013-06-22 10:22:00,75.7,60.8,30.07,West,270,0.0,-999.0,60,-99.99,,,0.00,Acu-Link.com,2013-06-22 14:22:00,
2013-06-22 10:37:00,83.3,60.3,30.06,SE,135,2.2,-999.0,46,-99.99,,,0.00,Acu-Link.com,2013-06-22 14:37:00,
2013-06-22 10:52:00,80.4,60.0,30.05,West,270,2.7,-999.0,50,-99.99,,,0.00,Acu-Link.com,2013-06-22 14:52:00,
2013-06-22 11:08:00,83.8,59.5,30.04,WNW,292,1.7,-999.0,44,-99.99,,,0.00,Acu-Link.com,2013-06-22 15:08:00,
2013-06-22 11:23:00,86.0,57.4,30.05,ESE,112,4.2,-999.0,38,-99.99,,,0.00,Acu-Link.com,2013-06-22 15:23:00,
2013-06-22 11:38:00,87.6,56.5,30.05,South,180,1.7,-999.0,35,-99.99,,,0.00,Acu-Link.com,2013-06-22 15:38:00,
2013-06-22 11:53:00,83.7,58.1,30.05,NNE,22,2.2,-999.0,42,-99.99,,,0.00,Acu-Link.com,2013-06-22 15:53:00,
2013-06-22 12:08:00,90.5,57.4,30.04,NNW,337,0.0,-999.0,33,-99.99,,,0.00,Acu-Link.com,2013-06-22 16:08:00,
2013-06-22 12:23:00,88.7,57.5,30.05,North,0,1.7,-999.0,35,-99.99,,,0.00,Acu-Link.com,2013-06-22 16:23:00,
2013-06-22 12:38:00,88.7,59.0,30.05,ESE,112,2.2,-999.0,37,-99.99,,,0.00,Acu-Link.com,2013-06-22 16:38:00,
2013-06-22 12:53:00,88.2,58.6,30.04,SE,135,2.2,-999.0,37,-99.99,,,0.00,Acu-Link.com,2013-06-22 16:53:00,
2013-06-22 13:08:00,89.1,60.1,30.04,South,180,1.7,-999.0,38,-99.99,,,0.00,Acu-Link.com,2013-06-22 17:08:00,
2013-06-22 13:23:00,89.8,60.0,30.03,WSW,247,4.2,-999.0,37,-99.99,,,0.00,Acu-Link.com,2013-06-22 17:23:00,
2013-06-22 13:39:00,89.6,59.1,30.03,WNW,292,3.7,-999.0,36,-99.99,,,0.00,Acu-Link.com,2013-06-22 17:39:00,
2013-06-22 13:54:00,89.6,59.8,30.01,South,180,1.7,-999.0,37,-99.99,,,0.00,Acu-Link.com,2013-06-22 17:54:00,
2013-06-22 14:09:00,91.2,58.0,30.02,WNW,292,2.7,-999.0,33,-99.99,,,0.00,Acu-Link.com,2013-06-22 18:09:00,
2013-06-22 14:24:00,90.0,57.0,30.00,NNE,22,3.2,-999.0,33,-99.99,,,0.00,Acu-Link.com,2013-06-22 18:24:00,
2013-06-22 14:39:00,91.0,55.2,29.99,East,90,4.7,-999.0,30,-99.99,,,0.00,Acu-Link.com,2013-06-22 18:39:00,
2013-06-22 14:54:00,91.8,53.0,29.99,WSW,247,1.7,-999.0,27,-99.99,,,0.00,Acu-Link.com,2013-06-22 18:54:00,
2013-06-22 15:09:00,92.3,56.3,29.99,SSE,157,3.2,-999.0,30,-99.99,,,0.00,Acu-Link.com,2013-06-22 19:09:00,
2013-06-22 15:24:00,94.3,54.1,29.96,SSE,157,3.7,-999.0,26,-99.99,,,0.00,Acu-Link.com,2013-06-22 19:24:00,
2013-06-22 15:39:00,93.4,57.3,29.96,ESE,112,2.2,-999.0,30,-99.99,,,0.00,Acu-Link.com,2013-06-22 19:39:00,
2013-06-22 15:55:00,89.1,57.8,29.95,ESE,112,1.7,-999.0,35,-99.99,,,0.00,Acu-Link.com,2013-06-22 19:55:00,
2013-06-22 16:10:00,93.0,56.0,29.94,SSW,202,2.2,-999.0,29,-99.99,,,0.00,Acu-Link.com,2013-06-22 20:10:00,
2013-06-22 16:25:00,95.9,55.4,29.95,East,90,2.2,-999.0,26,-99.99,,,0.00,Acu-Link.com,2013-06-22 20:25:00,
2013-06-22 16:40:00,94.5,57.3,29.93,SSW,202,0.0,-999.0,29,-99.99,,,0.00,Acu-Link.com,2013-06-22 20:40:00,
2013-06-22 16:55:00,92.7,56.7,29.93,SSE,157,2.2,-999.0,30,-99.99,,,0.00,Acu-Link.com,2013-06-22 20:55:00,
2013-06-22 17:10:00,91.9,56.9,29.92,ENE,67,2.7,-999.0,31,-99.99,,,0.00,Acu-Link.com,2013-06-22 21:10:00,
2013-06-22 17:25:00,94.1,58.8,29.91,ESE,112,2.7,-999.0,31,-99.99,,,0.00,Acu-Link.com,2013-06-22 21:25:00,
2013-06-22 17:40:00,90.5,59.9,29.91,SSW,202,3.7,-999.0,36,-99.99,,,0.00,Acu-Link.com,2013-06-22 21:40:00,
2013-06-22 17:55:00,88.0,60.6,29.91,South,180,2.7,-999.0,40,-99.99,,,0.00,Acu-Link.com,2013-06-22 21:55:00,
2013-06-22 18:11:00,87.3,60.7,29.90,SE,135,2.7,-999.0,41,-99.99,,,0.00,Acu-Link.com,2013-06-22 22:11:00,
2013-06-22 18:26:00,86.9,61.0,29.91,SE,135,3.2,-999.0,42,-99.99,,,0.00,Acu-Link.com,2013-06-22 22:26:00,
2013-06-22 18:41:00,85.5,60.4,29.91,ESE,112,4.2,-999.0,43,-99.99,,,0.00,Acu-Link.com,2013-06-22 22:41:00,
2013-06-22 18:56:00,85.3,61.5,29.91,SSE,157,1.7,-999.0,45,-99.99,,,0.00,Acu-Link.com,2013-06-22 22:56:00,
2013-06-22 19:11:00,83.5,61.1,29.91,NE,45,2.2,-999.0,47,-99.99,,,0.00,Acu-Link.com,2013-06-22 23:11:00,
2013-06-22 19:26:00,82.8,61.7,29.90,ESE,112,2.7,-999.0,49,-99.99,,,0.00,Acu-Link.com,2013-06-22 23:26:00,
2013-06-22 19:42:00,81.3,61.4,29.92,East,90,2.2,-999.0,51,-99.99,,,0.00,Acu-Link.com,2013-06-22 23:42:00,
2013-06-22 19:57:00,80.2,61.0,29.91,ENE,67,4.7,-999.0,52,-99.99,,,0.00,Acu-Link.com,2013-06-22 23:57:00,
2013-06-22 20:12:00,77.4,59.9,29.91,ESE,112,2.7,-999.0,55,-99.99,,,0.00,Acu-Link.com,2013-06-23 00:12:00,
2013-06-22 20:27:00,75.9,58.0,29.91,ENE,67,0.0,-999.0,54,-99.99,,,0.00,Acu-Link.com,2013-06-23 00:27:00,
2013-06-22 20:42:00,73.0,59.2,29.92,NNW,337,0.0,-999.0,62,-99.99,,,0.00,Acu-Link.com,2013-06-23 00:42:00,
2013-06-22 20:57:00,71.8,59.0,29.94,NW,315,0.0,-999.0,64,-99.99,,,0.00,Acu-Link.com,2013-06-23 00:57:00,
2013-06-22 21:12:00,70.9,59.4,29.94,West,270,0.0,-999.0,67,-99.99,,,0.00,Acu-Link.com,2013-06-23 01:12:00,
2013-06-22 21:27:00,70.0,59.4,29.94,WNW,292,0.0,-999.0,69,-99.99,,,0.00,Acu-Link.com,2013-06-23 01:27:00,
2013-06-22 21:42:00,69.1,59.7,29.95,NE,45,0.0,-999.0,72,-99.99,,,0.00,Acu-Link.com,2013-06-23 01:42:00,
2013-06-22 21:58:00,68.2,60.3,29.96,NW,315,0.0,-999.0,76,-99.99,,,0.00,Acu-Link.com,2013-06-23 01:58:00,
2013-06-22 22:13:00,67.5,60.4,29.95,NE,45,0.0,-999.0,78,-99.99,,,0.00,Acu-Link.com,2013-06-23 02:13:00,
2013-06-22 22:28:00,66.7,61.0,29.96,NW,315,0.0,-999.0,82,-99.99,,,0.00,Acu-Link.com,2013-06-23 02:28:00,
2013-06-22 22:43:00,66.0,60.7,29.97,NW,315,0.0,-999.0,83,-99.99,,,0.00,Acu-Link.com,2013-06-23 02:43:00,
2013-06-22 22:58:00,65.5,60.5,29.98,NNE,22,0.0,-999.0,84,-99.99,,,0.00,Acu-Link.com,2013-06-23 02:58:00,
2013-06-22 23:13:00,64.8,60.5,29.98,NW,315,0.0,-999.0,86,-99.99,,,0.00,Acu-Link.com,2013-06-23 03:13:00,
2013-06-22 23:28:00,64.8,60.8,29.98,NNW,337,0.0,-999.0,87,-99.99,,,0.00,Acu-Link.com,2013-06-23 03:28:00,
2013-06-22 23:43:00,64.0,60.0,29.97,North,0,0.0,-999.0,87,-99.99,,,0.00,Acu-Link.com,2013-06-23 03:43:00,
2013-06-22 23:58:00,63.1,60.7,29.98,WNW,292,2.2,-999.0,92,-99.99,,,0.00,Acu-Link.com,2013-06-23 03:58:00,